EZY34YT EGKK-LGZA
Flight info
| Callsign | EZY34YT |
|---|---|
| Flight time | N/A |
| Altitude | 33000 |
| Route | ODVIK Y311 DVR UL9 KONAN DCT KOK UL607 FERDI DCT REMBA DCT LIRSU DCT KRH DCT UTABA DCT BEMKI DCT ELMEM DCT DIRAB DCT VESAL DCT VAKSU DCT RODON DCT LIMJA DCT PITAS UN732 KRK UT321 ASTUS |
| Aircraft | A320/M-SDE3FGHIRWY/LB1 |
Departure
| Time | N/A |
|---|---|
| Airport | London Gatwick Airport (EGKK) |
Arrival
| Time | 2026-05-05 18:43 |
|---|---|
| Airport | Zakynthos International Airport Dionysios Solomos (LGZA) |
| Time | Latitude | Longitude | Altitude | Speed | Heading |
|---|---|---|---|---|---|
| 2026-05-05 17:42 | 43.25013 | 16.76342 | 33066 ft | 482 kts | 136° |
| 2026-05-05 17:43 | 43.22731 | 16.79706 | 33063 ft | 481 kts | 136° |
| 2026-05-05 17:43 | 43.18190 | 16.86383 | 33062 ft | 481 kts | 136° |
| 2026-05-05 17:44 | 43.13618 | 16.93079 | 33064 ft | 483 kts | 136° |
| 2026-05-05 17:44 | 43.09020 | 16.99791 | 33057 ft | 483 kts | 136° |
| 2026-05-05 17:45 | 43.04416 | 17.06494 | 33069 ft | 483 kts | 136° |
| 2026-05-05 17:45 | 42.99818 | 17.13184 | 33063 ft | 483 kts | 136° |
| 2026-05-05 17:46 | 42.95216 | 17.19863 | 33052 ft | 483 kts | 136° |
| 2026-05-05 17:46 | 42.90613 | 17.26533 | 33054 ft | 483 kts | 136° |
| 2026-05-05 17:47 | 42.86027 | 17.33168 | 33067 ft | 484 kts | 136° |
| 2026-05-05 17:47 | 42.81401 | 17.39834 | 33069 ft | 484 kts | 136° |
| 2026-05-05 17:48 | 42.76760 | 17.46494 | 33061 ft | 485 kts | 136° |
| 2026-05-05 17:48 | 42.72117 | 17.53150 | 33069 ft | 485 kts | 136° |
| 2026-05-05 17:49 | 42.67464 | 17.59798 | 33071 ft | 485 kts | 136° |
| 2026-05-05 17:49 | 42.62815 | 17.66438 | 33068 ft | 485 kts | 136° |
| 2026-05-05 17:50 | 42.58158 | 17.73095 | 33068 ft | 486 kts | 136° |
| 2026-05-05 17:50 | 42.53489 | 17.79734 | 33074 ft | 487 kts | 136° |
| 2026-05-05 17:51 | 42.48800 | 17.86371 | 33072 ft | 487 kts | 136° |
| 2026-05-05 17:51 | 42.44112 | 17.92990 | 33076 ft | 487 kts | 136° |
| 2026-05-05 17:52 | 42.39418 | 17.99615 | 33067 ft | 487 kts | 136° |
| 2026-05-05 17:52 | 42.35515 | 18.05120 | 33078 ft | 488 kts | 136° |
| 2026-05-05 17:53 | 42.30818 | 18.11731 | 33080 ft | 488 kts | 136° |
| 2026-05-05 17:53 | 42.25348 | 18.19396 | 33079 ft | 488 kts | 136° |
| 2026-05-05 17:54 | 42.21402 | 18.24912 | 33081 ft | 488 kts | 136° |
| 2026-05-05 17:54 | 42.16687 | 18.31495 | 33079 ft | 487 kts | 136° |
| 2026-05-05 17:55 | 42.11967 | 18.38066 | 33077 ft | 488 kts | 136° |
| 2026-05-05 17:55 | 42.07227 | 18.44636 | 33078 ft | 489 kts | 136° |
| 2026-05-05 17:56 | 42.02482 | 18.51210 | 33076 ft | 490 kts | 137° |
| 2026-05-05 17:56 | 41.97264 | 18.57027 | 33076 ft | 487 kts | 145° |
| 2026-05-05 17:57 | 41.91903 | 18.62596 | 33080 ft | 487 kts | 145° |
| 2026-05-05 17:57 | 41.86567 | 18.68136 | 33078 ft | 488 kts | 146° |
| 2026-05-05 17:58 | 41.81189 | 18.73712 | 33079 ft | 484 kts | 146° |
| 2026-05-05 17:58 | 41.75899 | 18.79186 | 33085 ft | 479 kts | 146° |
| 2026-05-05 17:59 | 41.70579 | 18.84662 | 33084 ft | 479 kts | 146° |
| 2026-05-05 17:59 | 41.65287 | 18.90082 | 33084 ft | 479 kts | 146° |
| 2026-05-05 18:00 | 41.59983 | 18.95530 | 33082 ft | 482 kts | 146° |
| 2026-05-05 18:00 | 41.54700 | 19.00948 | 33092 ft | 482 kts | 147° |
| 2026-05-05 18:01 | 41.49368 | 19.06390 | 33090 ft | 482 kts | 147° |
| 2026-05-05 18:01 | 41.43707 | 19.10992 | 33085 ft | 471 kts | 163° |
| 2026-05-05 18:02 | 41.37594 | 19.14031 | 33074 ft | 469 kts | 165° |
| 2026-05-05 18:02 | 41.31451 | 19.17027 | 33067 ft | 471 kts | 165° |
| 2026-05-05 18:03 | 41.25290 | 19.20034 | 33070 ft | 472 kts | 165° |
| 2026-05-05 18:03 | 41.19111 | 19.23048 | 33073 ft | 473 kts | 165° |
| 2026-05-05 18:04 | 41.12924 | 19.26049 | 33081 ft | 473 kts | 165° |
| 2026-05-05 18:04 | 41.06779 | 19.29021 | 33084 ft | 473 kts | 165° |
| 2026-05-05 18:05 | 41.00589 | 19.32010 | 33081 ft | 473 kts | 165° |
| 2026-05-05 18:05 | 40.94392 | 19.35001 | 33070 ft | 474 kts | 165° |
| 2026-05-05 18:06 | 40.88198 | 19.37980 | 33077 ft | 474 kts | 165° |
| 2026-05-05 18:06 | 40.81993 | 19.40953 | 33085 ft | 474 kts | 165° |
| 2026-05-05 18:07 | 40.75794 | 19.43934 | 33086 ft | 474 kts | 165° |
| 2026-05-05 18:07 | 40.69576 | 19.46915 | 33078 ft | 475 kts | 165° |
| 2026-05-05 18:08 | 40.63349 | 19.49879 | 33075 ft | 476 kts | 165° |
| 2026-05-05 18:08 | 40.57112 | 19.52853 | 33085 ft | 477 kts | 165° |
| 2026-05-05 18:09 | 40.50910 | 19.55814 | 33081 ft | 478 kts | 165° |
| 2026-05-05 18:09 | 40.44646 | 19.58791 | 33098 ft | 478 kts | 165° |
| 2026-05-05 18:10 | 40.38383 | 19.61752 | 33095 ft | 479 kts | 165° |
| 2026-05-05 18:10 | 40.32109 | 19.64707 | 33106 ft | 479 kts | 165° |
| 2026-05-05 18:11 | 40.25840 | 19.67661 | 33107 ft | 478 kts | 164° |
| 2026-05-05 18:11 | 40.19577 | 19.70609 | 33119 ft | 478 kts | 164° |
| 2026-05-05 18:12 | 40.13314 | 19.73552 | 33126 ft | 478 kts | 164° |
| 2026-05-05 18:12 | 40.07057 | 19.76485 | 33126 ft | 478 kts | 164° |
| 2026-05-05 18:13 | 40.00798 | 19.79422 | 33122 ft | 477 kts | 164° |
| 2026-05-05 18:13 | 39.94545 | 19.82344 | 33123 ft | 478 kts | 164° |
| 2026-05-05 18:14 | 39.88284 | 19.85272 | 33118 ft | 478 kts | 163° |
| 2026-05-05 18:14 | 39.82060 | 19.88358 | 33102 ft | 479 kts | 162° |
| 2026-05-05 18:15 | 39.75854 | 19.91546 | 33101 ft | 479 kts | 162° |
| 2026-05-05 18:15 | 39.69639 | 19.94701 | 33099 ft | 479 kts | 162° |
| 2026-05-05 18:16 | 39.63345 | 19.97371 | 33094 ft | 471 kts | 177° |
| 2026-05-05 18:16 | 39.56851 | 19.98284 | 33088 ft | 470 kts | 179° |
| 2026-05-05 18:17 | 39.50338 | 19.99118 | 33092 ft | 470 kts | 179° |
| 2026-05-05 18:17 | 39.43866 | 19.99943 | 33099 ft | 471 kts | 179° |
| 2026-05-05 18:18 | 39.37352 | 20.00798 | 33112 ft | 471 kts | 179° |
| 2026-05-05 18:18 | 39.30831 | 20.01657 | 33103 ft | 471 kts | 178° |
| 2026-05-05 18:19 | 39.24299 | 20.02518 | 33106 ft | 471 kts | 178° |
| 2026-05-05 18:19 | 39.17776 | 20.03372 | 33113 ft | 471 kts | 178° |
| 2026-05-05 18:20 | 39.11246 | 20.04217 | 33104 ft | 471 kts | 178° |
| 2026-05-05 18:20 | 39.04634 | 20.05089 | 33126 ft | 482 kts | 178° |
| 2026-05-05 18:21 | 38.97939 | 20.05973 | 33126 ft | 480 kts | 178° |
| 2026-05-05 18:21 | 38.91390 | 20.06853 | 32659 ft | 467 kts | 178° |
| 2026-05-05 18:21 | 38.88169 | 20.07295 | 32188 ft | 462 kts | 178° |
| 2026-05-05 18:22 | 38.84992 | 20.07739 | 31707 ft | 457 kts | 178° |
| 2026-05-05 18:22 | 38.81848 | 20.08187 | 31241 ft | 453 kts | 178° |
| 2026-05-05 18:22 | 38.78880 | 20.08617 | 30805 ft | 448 kts | 178° |
| 2026-05-05 18:22 | 38.75793 | 20.09072 | 30353 ft | 444 kts | 178° |
| 2026-05-05 18:23 | 38.72741 | 20.09530 | 29851 ft | 440 kts | 178° |
| 2026-05-05 18:23 | 38.69714 | 20.09984 | 29300 ft | 436 kts | 178° |
| 2026-05-05 18:23 | 38.66715 | 20.10422 | 28768 ft | 432 kts | 178° |
| 2026-05-05 18:23 | 38.63742 | 20.10870 | 28241 ft | 428 kts | 178° |
| 2026-05-05 18:24 | 38.60788 | 20.11295 | 27721 ft | 425 kts | 178° |
| 2026-05-05 18:24 | 38.57874 | 20.11707 | 27034 ft | 419 kts | 178° |
| 2026-05-05 18:24 | 38.54985 | 20.12108 | 26329 ft | 415 kts | 178° |
| 2026-05-05 18:24 | 38.52131 | 20.12498 | 25674 ft | 411 kts | 178° |
| 2026-05-05 18:25 | 38.49295 | 20.12878 | 25033 ft | 407 kts | 178° |
| 2026-05-05 18:25 | 38.48382 | 20.12999 | 24827 ft | 406 kts | 178° |
| 2026-05-05 18:25 | 38.43716 | 20.13599 | 23806 ft | 398 kts | 178° |
| 2026-05-05 18:25 | 38.40971 | 20.13967 | 23101 ft | 396 kts | 174° |
| 2026-05-05 18:26 | 38.38340 | 20.15009 | 22524 ft | 398 kts | 155° |
| 2026-05-05 18:26 | 38.35937 | 20.16790 | 22265 ft | 401 kts | 150° |
| 2026-05-05 18:26 | 38.33553 | 20.18623 | 22003 ft | 400 kts | 150° |
| 2026-05-05 18:26 | 38.31176 | 20.20457 | 21753 ft | 398 kts | 150° |
| 2026-05-05 18:27 | 38.28842 | 20.22260 | 21443 ft | 394 kts | 150° |
| 2026-05-05 18:27 | 38.26499 | 20.24069 | 20956 ft | 393 kts | 150° |
| 2026-05-05 18:27 | 38.24157 | 20.25877 | 20464 ft | 393 kts | 150° |
| 2026-05-05 18:27 | 38.21832 | 20.27671 | 19961 ft | 392 kts | 150° |
| 2026-05-05 18:28 | 38.17166 | 20.31266 | 18975 ft | 391 kts | 150° |
| 2026-05-05 18:28 | 38.14830 | 20.33061 | 18484 ft | 391 kts | 150° |
| 2026-05-05 18:28 | 38.12504 | 20.34845 | 17945 ft | 391 kts | 150° |
| 2026-05-05 18:29 | 38.10180 | 20.36628 | 17465 ft | 389 kts | 150° |
| 2026-05-05 18:29 | 38.07895 | 20.38383 | 16979 ft | 377 kts | 150° |
| 2026-05-05 18:29 | 38.05693 | 20.40075 | 16521 ft | 363 kts | 149° |
| 2026-05-05 18:29 | 38.03570 | 20.41707 | 16085 ft | 351 kts | 149° |
| 2026-05-05 18:30 | 38.01489 | 20.43301 | 15671 ft | 349 kts | 149° |
| 2026-05-05 18:30 | 37.99407 | 20.44893 | 15243 ft | 349 kts | 149° |
| 2026-05-05 18:30 | 37.97327 | 20.46483 | 14794 ft | 350 kts | 149° |
| 2026-05-05 18:30 | 37.95241 | 20.48078 | 14380 ft | 351 kts | 149° |
| 2026-05-05 18:31 | 37.93150 | 20.49677 | 13940 ft | 352 kts | 148° |
| 2026-05-05 18:31 | 37.91051 | 20.51281 | 13451 ft | 352 kts | 148° |
| 2026-05-05 18:31 | 37.88976 | 20.52870 | 13011 ft | 343 kts | 148° |
| 2026-05-05 18:31 | 37.86959 | 20.54413 | 12592 ft | 334 kts | 148° |
| 2026-05-05 18:32 | 37.84993 | 20.55913 | 12165 ft | 326 kts | 148° |
| 2026-05-05 18:32 | 37.83069 | 20.57378 | 11746 ft | 320 kts | 148° |
| 2026-05-05 18:32 | 37.81159 | 20.58832 | 11328 ft | 321 kts | 148° |
| 2026-05-05 18:32 | 37.79890 | 20.59798 | 11053 ft | 322 kts | 148° |
| 2026-05-05 18:33 | 37.77972 | 20.61256 | 10627 ft | 322 kts | 148° |
| 2026-05-05 18:33 | 37.76042 | 20.62721 | 10205 ft | 322 kts | 148° |
| 2026-05-05 18:33 | 37.74151 | 20.64154 | 10072 ft | 312 kts | 148° |
| 2026-05-05 18:33 | 37.72317 | 20.65543 | 9798 ft | 302 kts | 148° |
| 2026-05-05 18:34 | 37.70521 | 20.66908 | 9491 ft | 302 kts | 148° |
| 2026-05-05 18:34 | 37.68725 | 20.68272 | 9114 ft | 300 kts | 148° |
| 2026-05-05 18:34 | 37.66941 | 20.69623 | 8734 ft | 298 kts | 148° |
| 2026-05-05 18:34 | 37.65162 | 20.70973 | 8350 ft | 297 kts | 148° |
| 2026-05-05 18:35 | 37.63401 | 20.72308 | 7974 ft | 295 kts | 148° |
| 2026-05-05 18:35 | 37.61644 | 20.73636 | 7585 ft | 293 kts | 148° |
| 2026-05-05 18:35 | 37.59898 | 20.74955 | 7213 ft | 292 kts | 148° |
| 2026-05-05 18:35 | 37.58171 | 20.76258 | 6833 ft | 284 kts | 148° |
| 2026-05-05 18:36 | 37.56697 | 20.77788 | 6474 ft | 269 kts | 128° |
| 2026-05-05 18:36 | 37.55770 | 20.79753 | 6104 ft | 256 kts | 109° |
| 2026-05-05 18:36 | 37.55247 | 20.81838 | 5775 ft | 244 kts | 103° |
| 2026-05-05 18:36 | 37.54874 | 20.83894 | 5453 ft | 239 kts | 98° |
| 2026-05-05 18:37 | 37.54641 | 20.85962 | 5144 ft | 238 kts | 94° |
| 2026-05-05 18:37 | 37.54542 | 20.88047 | 4837 ft | 237 kts | 89° |
| 2026-05-05 18:37 | 37.54578 | 20.90119 | 4507 ft | 236 kts | 85° |
| 2026-05-05 18:37 | 37.54751 | 20.92166 | 4194 ft | 234 kts | 78° |
| 2026-05-05 18:38 | 37.55275 | 20.94053 | 3884 ft | 226 kts | 48° |
| 2026-05-05 18:38 | 37.56536 | 20.95033 | 3577 ft | 210 kts | 5° |
| 2026-05-05 18:38 | 37.57951 | 20.94869 | 3323 ft | 201 kts | 344° |
| 2026-05-05 18:38 | 37.59247 | 20.94373 | 3082 ft | 190 kts | 341° |
| 2026-05-05 18:39 | 37.60476 | 20.93841 | 2809 ft | 183 kts | 340° |
| 2026-05-05 18:39 | 37.61633 | 20.93347 | 2559 ft | 168 kts | 341° |
| 2026-05-05 18:39 | 37.62668 | 20.92920 | 2353 ft | 146 kts | 341° |
| 2026-05-05 18:39 | 37.63608 | 20.92544 | 2153 ft | 139 kts | 342° |
| 2026-05-05 18:40 | 37.64527 | 20.92198 | 1974 ft | 138 kts | 342° |
| 2026-05-05 18:40 | 37.65440 | 20.91862 | 1790 ft | 136 kts | 342° |
| 2026-05-05 18:40 | 37.66350 | 20.91532 | 1614 ft | 135 kts | 343° |
| 2026-05-05 18:40 | 37.67258 | 20.91207 | 1434 ft | 136 kts | 343° |
| 2026-05-05 18:41 | 37.68173 | 20.90884 | 1257 ft | 138 kts | 344° |
| 2026-05-05 18:41 | 37.69102 | 20.90581 | 1063 ft | 138 kts | 346° |
| 2026-05-05 18:41 | 37.70031 | 20.90299 | 908 ft | 138 kts | 345° |
| 2026-05-05 18:41 | 37.70541 | 20.90138 | 822 ft | 138 kts | 345° |
| 2026-05-05 18:42 | 37.71461 | 20.89794 | 649 ft | 139 kts | 342° |
| 2026-05-05 18:42 | 37.72386 | 20.89426 | 457 ft | 140 kts | 342° |
| 2026-05-05 18:42 | 37.73319 | 20.89085 | 262 ft | 140 kts | 344° |
| 2026-05-05 18:42 | 37.74253 | 20.88741 | 55 ft | 139 kts | 343° |
| 2026-05-05 18:43 | 37.75052 | 20.88443 | 19 ft | 82 kts | 343° |
| 2026-05-05 18:43 | 37.75355 | 20.88326 | 20 ft | 19 kts | 343° |
| 2026-05-05 18:43 | 37.75470 | 20.88300 | 21 ft | 9 kts | 30° |
| 2026-05-05 18:43 | 37.75483 | 20.88361 | 21 ft | 7 kts | 100° |
| 2026-05-05 18:44 | 37.75459 | 20.88406 | 21 ft | 6 kts | 143° |
| 2026-05-05 18:44 | 37.75423 | 20.88422 | 20 ft | 6 kts | 164° |
| 2026-05-05 18:44 | 37.75375 | 20.88441 | 20 ft | 6 kts | 163° |
| 2026-05-05 18:44 | 37.75355 | 20.88470 | 20 ft | 4 kts | 94° |
| 2026-05-05 18:45 | 37.75360 | 20.88498 | 22 ft | 3 kts | 75° |
| 2026-05-05 18:45 | 37.75365 | 20.88516 | 20 ft | 2 kts | 73° |
| 2026-05-05 18:45 | 37.75367 | 20.88526 | 20 ft | 1 kts | 73° |
| 2026-05-05 18:45 | 37.75368 | 20.88530 | 20 ft | 0 kts | 73° |
| 2026-05-05 18:46 | 37.75369 | 20.88532 | 20 ft | 0 kts | 73° |
| 2026-05-05 18:46 | 37.75370 | 20.88537 | 20 ft | 0 kts | 73° |